createdAt,value
2022-12-31T08:18:44.274Z,91.60
2022-12-31T08:21:48.239Z,91.60
2022-12-31T08:24:35.856Z,91.60
2022-12-31T08:28:02.615Z,91.30
2022-12-31T08:33:29.043Z,90.70
2022-12-31T08:36:15.859Z,90.80
2022-12-31T08:39:31.617Z,90.70
2022-12-31T08:42:03.684Z,90.50
2022-12-31T08:45:21.986Z,90.10
2022-12-31T08:48:30.118Z,90.00
2022-12-31T08:50:58.510Z,89.50
2022-12-31T08:53:26.603Z,88.90
2022-12-31T08:56:07.719Z,88.30
2022-12-31T08:58:53.476Z,87.40
2022-12-31T09:01:27.961Z,86.80
2022-12-31T09:04:43.159Z,86.50
2022-12-31T09:07:12.067Z,86.20
2022-12-31T09:10:32.146Z,85.70
2022-12-31T09:13:59.325Z,85.10
2022-12-31T09:17:16.639Z,84.30
2022-12-31T09:19:43.975Z,83.80
2022-12-31T09:22:11.981Z,82.80
2022-12-31T09:24:39.749Z,82.30
2022-12-31T09:27:57.771Z,82.20
2022-12-31T09:30:32.483Z,81.60
2022-12-31T09:34:06.998Z,81.50
2022-12-31T09:36:50.614Z,80.50
2022-12-31T09:39:51.043Z,80.30
2022-12-31T09:43:44.379Z,80.10
2022-12-31T09:47:33.668Z,80.00
2022-12-31T09:51:21.684Z,80.30
2022-12-31T09:54:51.556Z,80.20
2022-12-31T09:58:07.590Z,79.60
2022-12-31T10:01:26.680Z,79.10
2022-12-31T10:05:26.555Z,79.70
2022-12-31T10:08:56.783Z,79.10
2022-12-31T10:12:34.773Z,78.80
2022-12-31T10:15:42.092Z,78.20
2022-12-31T10:19:08.145Z,78.10
2022-12-31T10:22:36.876Z,77.90
2022-12-31T10:26:06.036Z,77.60
2022-12-31T10:29:48.785Z,77.00
2022-12-31T10:32:32.054Z,77.20
2022-12-31T10:35:15.099Z,76.70
2022-12-31T10:38:29.757Z,76.40
2022-12-31T10:41:48.914Z,76.50
2022-12-31T10:44:53.731Z,75.90
2022-12-31T10:48:55.134Z,75.60
2022-12-31T10:51:57.551Z,75.20
2022-12-31T10:55:29.251Z,75.20
2022-12-31T10:58:50.259Z,74.70
2022-12-31T11:01:54.176Z,74.40
2022-12-31T11:05:10.561Z,73.90
2022-12-31T11:08:08.662Z,73.00
2022-12-31T11:11:33.523Z,72.30
2022-12-31T11:14:54.013Z,71.80
2022-12-31T11:18:14.889Z,70.70
2022-12-31T11:21:27.767Z,70.50
2022-12-31T11:24:45.202Z,71.20
2022-12-31T11:28:10.182Z,70.30
2022-12-31T11:31:23.836Z,70.20
2022-12-31T11:34:43.101Z,70.00
2022-12-31T11:37:54.585Z,69.90
2022-12-31T11:41:00.852Z,69.70
2022-12-31T11:43:55.604Z,69.90
2022-12-31T11:46:59.836Z,69.90
2022-12-31T11:50:09.168Z,69.60
2022-12-31T11:53:19.070Z,69.20
2022-12-31T11:56:24.710Z,69.80
2022-12-31T11:58:55.834Z,69.90
2022-12-31T12:02:01.705Z,70.00
2022-12-31T12:04:30.046Z,69.20
2022-12-31T12:06:57.847Z,69.40
2022-12-31T12:09:34.391Z,69.40
2022-12-31T12:12:06.275Z,69.00
2022-12-31T12:14:39.304Z,69.00
2022-12-31T12:17:22.009Z,69.20
2022-12-31T12:19:56.869Z,69.10
2022-12-31T12:22:29.596Z,69.60
2022-12-31T12:25:20.502Z,69.50
2022-12-31T12:27:48.337Z,69.40
2022-12-31T12:30:27.876Z,69.90
2022-12-31T12:33:04.790Z,69.70
2022-12-31T12:35:36.043Z,69.80
2022-12-31T12:38:14.334Z,69.70
2022-12-31T12:40:42.035Z,69.80
2022-12-31T12:43:30.385Z,69.80
2022-12-31T12:46:05.533Z,69.40
2022-12-31T12:48:44.674Z,69.90
2022-12-31T12:52:04.877Z,70.00
2022-12-31T12:55:00.659Z,69.90
2022-12-31T12:57:46.458Z,69.90
2022-12-31T13:00:45.220Z,70.10
2022-12-31T13:04:35.622Z,70.40
2022-12-31T13:07:45.615Z,70.40
2022-12-31T13:11:06.159Z,70.50
2022-12-31T13:14:28.844Z,70.40
2022-12-31T13:18:01.498Z,70.30
2022-12-31T13:21:26.364Z,70.20
2022-12-31T13:24:28.369Z,69.90
2022-12-31T13:27:27.598Z,70.10
2022-12-31T13:30:01.556Z,70.10
2022-12-31T13:33:00.283Z,70.60
2022-12-31T13:35:57.465Z,70.30
2022-12-31T13:38:54.284Z,70.60
2022-12-31T13:41:34.563Z,70.60
2022-12-31T13:44:41.854Z,70.90
2022-12-31T13:47:37.109Z,70.80
2022-12-31T13:50:22.953Z,70.90
2022-12-31T13:53:36.626Z,70.80
2022-12-31T13:56:24.047Z,70.70
2022-12-31T13:59:02.059Z,70.80
2022-12-31T14:01:48.168Z,70.80
2022-12-31T14:04:33.709Z,71.20
2022-12-31T14:07:36.623Z,71.10
2022-12-31T14:10:16.098Z,71.30
2022-12-31T14:13:36.400Z,71.20
2022-12-31T14:17:02.634Z,71.50
2022-12-31T14:20:00.369Z,71.50
2022-12-31T14:23:24.518Z,71.00
2022-12-31T14:26:37.359Z,71.30
2022-12-31T14:29:45.824Z,71.40
2022-12-31T14:33:16.417Z,71.10
2022-12-31T14:36:32.303Z,71.10
2022-12-31T14:40:00.483Z,71.50
2022-12-31T14:43:18.075Z,71.40
2022-12-31T14:46:39.647Z,71.40
2022-12-31T14:50:12.507Z,71.40
2022-12-31T14:53:04.098Z,71.80
2022-12-31T14:55:40.855Z,71.90
2022-12-31T14:58:32.417Z,72.20
2022-12-31T15:01:04.496Z,72.20
2022-12-31T15:03:31.615Z,72.10
2022-12-31T15:06:51.615Z,72.30
2022-12-31T15:10:34.138Z,72.30
2022-12-31T15:13:35.549Z,72.60
2022-12-31T15:16:38.700Z,72.60
2022-12-31T15:20:19.045Z,72.40
2022-12-31T15:22:52.253Z,72.70
2022-12-31T15:25:40.458Z,72.50
2022-12-31T15:28:40.683Z,72.50
2022-12-31T15:31:18.130Z,72.70
2022-12-31T15:34:23.779Z,72.80
2022-12-31T15:37:00.689Z,72.90
2022-12-31T15:39:41.862Z,73.10
2022-12-31T15:43:08.012Z,73.10
2022-12-31T15:45:41.126Z,73.70
2022-12-31T15:48:44.083Z,73.50
2022-12-31T15:51:30.585Z,73.40
2022-12-31T15:54:00.838Z,73.70
2022-12-31T15:56:45.218Z,73.90
2022-12-31T15:59:17.253Z,74.10
2022-12-31T16:01:46.782Z,74.10
2022-12-31T16:04:28.675Z,74.30
2022-12-31T16:07:01.982Z,74.60
2022-12-31T16:09:35.912Z,74.80
2022-12-31T16:12:19.170Z,75.10
2022-12-31T16:14:55.424Z,75.10
2022-12-31T16:17:36.896Z,75.40
2022-12-31T16:20:26.987Z,75.40
2022-12-31T16:22:57.582Z,75.40
2022-12-31T16:25:31.906Z,75.40
2022-12-31T16:28:01.652Z,75.50
2022-12-31T16:30:37.212Z,75.60
2022-12-31T16:33:12.356Z,75.90
2022-12-31T16:35:39.991Z,75.90
2022-12-31T16:38:18.768Z,76.20
2022-12-31T16:41:19.807Z,76.20
2022-12-31T16:43:50.230Z,76.60
2022-12-31T16:46:31.223Z,76.40
2022-12-31T16:49:19.882Z,76.80
2022-12-31T16:51:47.704Z,76.80
2022-12-31T16:54:44.164Z,77.00
2022-12-31T16:57:24.546Z,77.10
2022-12-31T17:00:02.223Z,77.10
2022-12-31T17:02:40.619Z,77.00
2022-12-31T17:05:28.756Z,77.30
2022-12-31T17:07:57.382Z,77.20
2022-12-31T17:10:36.422Z,77.60
2022-12-31T17:13:34.009Z,77.60
2022-12-31T17:16:02.259Z,77.80
2022-12-31T17:18:38.553Z,77.80
2022-12-31T17:21:10.813Z,78.50
2022-12-31T17:23:39.867Z,78.00
2022-12-31T17:26:34.736Z,78.00
2022-12-31T17:29:05.182Z,78.30
2022-12-31T17:31:39.436Z,78.40
2022-12-31T17:34:22.805Z,78.80
2022-12-31T17:37:27.580Z,78.80
2022-12-31T17:42:48.773Z,78.90
2022-12-31T17:45:22.004Z,78.90
2022-12-31T17:47:53.664Z,78.90
2022-12-31T17:50:27.902Z,79.00
2022-12-31T17:53:12.493Z,79.10
2022-12-31T17:55:45.526Z,79.00
2022-12-31T17:58:36.445Z,79.10
2022-12-31T18:01:09.258Z,79.30
2022-12-31T18:03:36.642Z,79.30
2022-12-31T18:06:05.444Z,79.60
2022-12-31T18:08:32.857Z,79.50
2022-12-31T18:11:00.158Z,79.50
2022-12-31T18:13:28.293Z,79.90
2022-12-31T18:15:56.112Z,79.80
2022-12-31T18:18:28.523Z,79.90
2022-12-31T18:21:03.361Z,80.10
2022-12-31T18:23:47.978Z,80.00
2022-12-31T18:26:21.099Z,80.50
2022-12-31T18:28:50.259Z,79.80
2022-12-31T18:31:30.859Z,80.30
2022-12-31T18:33:59.661Z,79.80
2022-12-31T18:36:28.513Z,80.20
2022-12-31T18:38:55.950Z,80.30
2022-12-31T18:41:30.031Z,80.30
2022-12-31T18:43:57.380Z,80.20
2022-12-31T18:46:26.914Z,80.40
2022-12-31T18:48:54.193Z,80.40
2022-12-31T18:51:31.265Z,80.40
2022-12-31T18:54:01.737Z,80.60
2022-12-31T18:56:29.201Z,80.60
2022-12-31T18:58:56.734Z,80.40
2022-12-31T19:01:38.505Z,80.70
2022-12-31T19:04:24.978Z,80.70
2022-12-31T19:06:55.446Z,80.60
2022-12-31T19:12:15.006Z,80.80
2022-12-31T19:14:42.436Z,80.50
2022-12-31T19:19:36.376Z,80.60
2022-12-31T19:22:03.701Z,80.40
2022-12-31T19:24:31.015Z,80.50
2022-12-31T19:26:58.347Z,80.70
2022-12-31T19:29:28.425Z,80.80
2022-12-31T19:31:55.722Z,81.20
2022-12-31T19:34:23.082Z,81.30
2022-12-31T19:36:50.418Z,81.50
2022-12-31T19:39:21.279Z,81.50
2022-12-31T19:41:54.747Z,81.60
2022-12-31T19:44:26.125Z,81.70
2022-12-31T19:46:53.486Z,82.00
2022-12-31T19:49:20.795Z,81.30
2022-12-31T19:51:48.175Z,81.30
2022-12-31T19:54:15.474Z,81.50
2022-12-31T19:56:42.818Z,81.60
2022-12-31T19:59:11.458Z,81.70
2022-12-31T20:01:39.145Z,81.70
2022-12-31T20:04:06.871Z,81.70
2022-12-31T20:06:34.218Z,81.60
2022-12-31T20:09:03.414Z,81.70
2022-12-31T20:11:30.780Z,81.80
2022-12-31T20:13:58.288Z,81.80
2022-12-31T20:16:27.578Z,81.60
2022-12-31T20:18:55.264Z,81.70
2022-12-31T20:21:29.175Z,81.60
2022-12-31T20:23:56.988Z,81.60
2022-12-31T20:26:25.795Z,81.50
2022-12-31T20:28:53.822Z,81.40
2022-12-31T20:31:28.426Z,81.30
2022-12-31T20:33:56.238Z,81.20
2022-12-31T20:36:24.591Z,81.30
2022-12-31T20:38:51.962Z,81.30
2022-12-31T20:41:22.889Z,81.20
2022-12-31T20:43:50.906Z,81.30
2022-12-31T20:46:25.932Z,81.40
2022-12-31T20:49:01.736Z,81.50
